createdAt,value
2018-09-08T00:02:17.425Z,99.90
2018-09-08T00:04:45.473Z,99.90
2018-09-08T00:07:18.903Z,99.90
2018-09-08T00:09:46.948Z,99.90
2018-09-08T00:12:15.000Z,99.90
2018-09-08T00:14:42.401Z,99.90
2018-09-08T00:17:15.876Z,99.90
2018-09-08T00:19:49.482Z,99.90
2018-09-08T00:22:23.103Z,99.90
2018-09-08T00:24:56.698Z,99.90
2018-09-08T00:27:30.181Z,99.90
2018-09-08T00:29:58.241Z,99.90
2018-09-08T00:32:26.305Z,99.90
2018-09-08T00:34:54.374Z,99.90
2018-09-08T00:37:22.456Z,99.90
2018-09-08T00:39:50.527Z,99.90
2018-09-08T00:42:18.619Z,99.90
2018-09-08T00:44:46.676Z,99.90
2018-09-08T00:47:14.748Z,99.90
2018-09-08T00:49:42.795Z,99.90
2018-09-08T00:52:10.865Z,99.90
2018-09-08T00:54:38.995Z,99.90
2018-09-08T00:57:07.076Z,99.90
2018-09-08T00:59:35.131Z,99.90
2018-09-08T01:02:03.179Z,99.90
2018-09-08T01:04:31.233Z,99.90
2018-09-08T01:06:59.289Z,99.90
2018-09-08T01:09:27.401Z,99.90
2018-09-08T01:11:55.488Z,99.90
2018-09-08T01:14:23.531Z,99.90
2018-09-08T01:16:51.581Z,99.90
2018-09-08T01:19:19.631Z,99.90
2018-09-08T01:21:47.704Z,99.90
2018-09-08T01:24:15.794Z,99.90
2018-09-08T01:26:43.851Z,99.90
2018-09-08T01:29:11.922Z,99.90
2018-09-08T01:31:39.994Z,99.90
2018-09-08T01:34:08.060Z,99.90
2018-09-08T01:36:36.114Z,99.90
2018-09-08T01:39:04.805Z,99.90
2018-09-08T01:41:32.858Z,99.90
2018-09-08T01:44:00.933Z,99.90
2018-09-08T01:46:28.994Z,99.90
2018-09-08T01:48:57.133Z,99.90
2018-09-08T01:51:25.195Z,99.90
2018-09-08T01:53:53.266Z,99.90
2018-09-08T01:56:21.326Z,99.90
2018-09-08T01:58:49.378Z,99.90
2018-09-08T02:01:17.548Z,99.90
2018-09-08T02:03:45.879Z,99.90
2018-09-08T02:06:13.951Z,99.90
2018-09-08T02:08:42.021Z,99.90
2018-09-08T02:11:10.074Z,99.90
2018-09-08T02:13:38.152Z,99.90
2018-09-08T02:16:06.303Z,99.90
2018-09-08T02:18:34.374Z,99.90
2018-09-08T02:21:02.422Z,99.90
2018-09-08T02:23:30.508Z,99.90
2018-09-08T02:26:01.383Z,99.90
2018-09-08T02:28:29.536Z,99.90
2018-09-08T02:30:57.582Z,99.90
2018-09-08T02:33:25.646Z,99.90
2018-09-08T02:35:53.711Z,99.90
2018-09-08T02:38:21.782Z,99.90
2018-09-08T02:40:49.949Z,99.90
2018-09-08T02:43:18.001Z,99.90
2018-09-08T02:45:46.076Z,99.90
2018-09-08T02:48:14.138Z,99.90
2018-09-08T02:50:42.203Z,99.90
2018-09-08T02:53:10.690Z,99.90
2018-09-08T02:55:38.163Z,99.90
2018-09-08T02:58:05.344Z,99.90
2018-09-08T03:00:33.553Z,99.90
2018-09-08T03:03:00.746Z,99.90
2018-09-08T03:05:27.923Z,99.90
2018-09-08T03:07:55.092Z,99.90
2018-09-08T03:10:22.587Z,99.90
2018-09-08T03:12:49.792Z,99.90
2018-09-08T03:15:17.006Z,99.90
2018-09-08T03:17:44.179Z,99.90
2018-09-08T03:20:11.423Z,99.90
2018-09-08T03:22:38.584Z,99.90
2018-09-08T03:25:05.757Z,99.90
2018-09-08T03:27:32.918Z,99.90
2018-09-08T03:30:00.114Z,99.90
2018-09-08T03:32:27.277Z,99.90
2018-09-08T03:34:54.455Z,99.90
2018-09-08T03:37:21.634Z,99.90
2018-09-08T03:39:48.797Z,99.90
2018-09-08T03:42:15.961Z,99.90
2018-09-08T03:44:43.135Z,99.90
2018-09-08T03:47:10.330Z,99.90
2018-09-08T03:49:37.511Z,99.90
2018-09-08T03:52:04.678Z,99.90
2018-09-08T03:54:31.851Z,99.90
2018-09-08T03:56:59.019Z,99.90
2018-09-08T03:59:26.257Z,99.90
2018-09-08T04:01:53.437Z,99.90
2018-09-08T04:04:21.492Z,99.90
2018-09-08T04:06:49.579Z,99.90
2018-09-08T04:09:17.647Z,99.90
2018-09-08T04:11:45.707Z,99.90
2018-09-08T04:14:13.787Z,99.90
2018-09-08T04:16:41.850Z,99.90
2018-09-08T04:19:09.905Z,99.90
2018-09-08T04:21:37.987Z,99.90
2018-09-08T04:24:06.043Z,99.90
2018-09-08T04:26:34.108Z,99.90
2018-09-08T04:29:02.163Z,99.90
2018-09-08T04:31:30.234Z,99.90
2018-09-08T04:33:58.284Z,99.90
2018-09-08T04:36:26.346Z,99.90
2018-09-08T04:38:54.393Z,99.90
2018-09-08T04:41:22.467Z,99.90
2018-09-08T04:43:50.530Z,99.90
2018-09-08T04:46:18.613Z,99.90
2018-09-08T04:48:46.680Z,99.90
2018-09-08T04:51:14.737Z,99.90
2018-09-08T04:53:42.802Z,99.90
2018-09-08T04:56:10.868Z,99.90
2018-09-08T04:58:38.947Z,99.90
2018-09-08T05:01:07.022Z,99.90
2018-09-08T05:03:35.078Z,99.90
2018-09-08T05:06:03.162Z,99.90
2018-09-08T05:08:31.252Z,99.90
2018-09-08T05:10:59.341Z,99.90
2018-09-08T05:13:27.402Z,99.90
2018-09-08T05:15:55.481Z,99.90
2018-09-08T05:18:23.555Z,99.90
2018-09-08T05:20:51.638Z,99.90
2018-09-08T05:23:19.671Z,99.90
2018-09-08T05:25:47.725Z,99.90
2018-09-08T05:28:15.773Z,99.90
2018-09-08T05:30:43.827Z,99.90
2018-09-08T05:33:11.936Z,99.90
2018-09-08T05:35:40.005Z,99.90
2018-09-08T05:38:08.058Z,99.90
2018-09-08T05:40:36.197Z,99.90
2018-09-08T05:43:04.294Z,99.90
2018-09-08T05:45:32.334Z,99.90
2018-09-08T05:48:00.418Z,99.90
2018-09-08T05:50:28.506Z,99.90
2018-09-08T05:52:56.575Z,99.90
2018-09-08T05:55:24.722Z,99.90
2018-09-08T05:57:52.783Z,99.90
2018-09-08T06:00:20.862Z,99.90
2018-09-08T06:02:48.927Z,99.90
2018-09-08T06:05:17.018Z,99.90
2018-09-08T06:07:45.071Z,99.90
2018-09-08T06:10:13.190Z,99.90
2018-09-08T06:12:41.338Z,99.90
2018-09-08T06:15:09.522Z,99.90
2018-09-08T06:17:37.570Z,99.90
2018-09-08T06:20:05.731Z,99.90
2018-09-08T06:22:33.806Z,99.90
2018-09-08T06:25:01.858Z,99.90
2018-09-08T06:27:29.947Z,99.90
2018-09-08T06:29:58.184Z,99.90
2018-09-08T06:32:26.232Z,99.90
2018-09-08T06:34:54.296Z,99.90
2018-09-08T06:37:22.361Z,99.90
2018-09-08T06:39:50.409Z,99.90
2018-09-08T06:42:18.472Z,99.90
2018-09-08T06:44:46.568Z,99.90
2018-09-08T06:47:14.612Z,99.90
2018-09-08T06:49:42.705Z,99.90
2018-09-08T06:52:10.824Z,99.90
2018-09-08T06:54:38.839Z,99.90
2018-09-08T06:57:06.906Z,99.90
2018-09-08T06:59:35.040Z,99.90
2018-09-08T07:02:04.426Z,99.90
2018-09-08T07:04:32.521Z,99.90
2018-09-08T07:07:00.624Z,99.90
2018-09-08T07:09:28.710Z,99.90
2018-09-08T07:11:56.801Z,99.90
2018-09-08T07:14:24.884Z,99.90
2018-09-08T07:16:52.938Z,99.90
2018-09-08T07:19:21.002Z,99.90
2018-09-08T07:21:49.214Z,99.90
2018-09-08T07:24:17.311Z,99.90
2018-09-08T07:26:45.371Z,99.90
2018-09-08T07:29:13.451Z,99.90
2018-09-08T07:31:41.512Z,99.90
2018-09-08T07:34:09.662Z,99.90
2018-09-08T07:36:37.743Z,99.90
2018-09-08T07:39:07.918Z,99.90
2018-09-08T07:41:35.982Z,99.90
2018-09-08T07:44:04.084Z,99.90
2018-09-08T07:46:32.160Z,99.70
2018-09-08T07:49:00.226Z,99.90
2018-09-08T07:51:28.394Z,99.60
2018-09-08T07:53:56.500Z,99.40
2018-09-08T07:56:24.560Z,99.10
2018-09-08T07:58:52.850Z,99.90
2018-09-08T08:01:20.898Z,99.30
2018-09-08T08:03:49.036Z,98.40
2018-09-08T08:06:17.107Z,98.90
2018-09-08T08:08:45.195Z,98.80
2018-09-08T08:11:13.256Z,97.30
2018-09-08T08:13:41.362Z,95.70
2018-09-08T08:16:09.676Z,95.30
2018-09-08T08:18:37.854Z,95.40
2018-09-08T08:21:05.974Z,94.60
2018-09-08T08:23:34.062Z,93.80
2018-09-08T08:26:02.145Z,91.30
2018-09-08T08:28:30.227Z,91.40
2018-09-08T08:30:58.401Z,88.60
2018-09-08T08:33:26.514Z,87.10
2018-09-08T08:35:54.599Z,90.40
2018-09-08T08:38:22.666Z,92.70
2018-09-08T08:40:50.755Z,91.00
2018-09-08T08:43:18.833Z,88.30
2018-09-08T08:45:47.023Z,87.70
2018-09-08T08:48:15.134Z,88.00
2018-09-08T08:50:54.690Z,80.80
2018-09-08T08:53:34.991Z,80.40
2018-09-08T08:56:03.104Z,76.60
2018-09-08T08:58:31.190Z,77.30
2018-09-08T09:00:59.269Z,77.60
2018-09-08T09:03:27.397Z,72.00
2018-09-08T09:05:55.479Z,69.60
2018-09-08T09:08:23.920Z,70.60
2018-09-08T09:10:51.861Z,70.60
2018-09-08T09:13:20.027Z,74.00
2018-09-08T09:15:48.151Z,69.60
2018-09-08T09:19:30.810Z,72.90
2018-09-08T09:22:10.396Z,75.30
2018-09-08T09:24:47.144Z,63.40
2018-09-08T09:27:14.905Z,66.70
2018-09-08T09:29:43.011Z,63.20
2018-09-08T09:32:11.066Z,60.90
2018-09-08T09:34:39.315Z,61.60
2018-09-08T09:37:07.393Z,60.90
2018-09-08T09:39:35.463Z,59.10
2018-09-08T09:42:03.535Z,55.60
2018-09-08T09:44:31.594Z,58.10
2018-09-08T09:46:59.649Z,60.30
2018-09-08T09:49:27.785Z,64.50
2018-09-08T09:51:55.891Z,65.50
2018-09-08T09:54:23.987Z,64.10
2018-09-08T09:56:52.120Z,66.30
2018-09-08T09:59:20.191Z,65.10
2018-09-08T10:01:53.859Z,60.60
2018-09-08T10:04:22.224Z,59.40
2018-09-08T10:06:50.328Z,59.90
2018-09-08T10:09:18.675Z,59.20
2018-09-08T10:11:47.056Z,59.40
2018-09-08T10:14:15.674Z,63.40
2018-09-08T10:16:43.788Z,65.80
2018-09-08T10:19:11.972Z,65.60
2018-09-08T10:21:40.179Z,61.10
2018-09-08T10:24:09.232Z,58.90
2018-09-08T10:26:37.431Z,56.60
2018-09-08T10:29:05.522Z,56.10
2018-09-08T10:31:33.632Z,58.40
2018-09-08T10:34:01.699Z,55.80
2018-09-08T10:36:29.786Z,54.80
2018-09-08T10:38:57.945Z,51.90
2018-09-08T10:41:26.040Z,52.30
2018-09-08T10:43:54.135Z,54.70
2018-09-08T10:46:22.234Z,52.40
2018-09-08T10:48:50.366Z,52.10
2018-09-08T10:53:31.424Z,53.40
2018-09-08T10:55:59.498Z,57.40
2018-09-08T10:58:27.575Z,53.90
2018-09-08T11:00:55.640Z,58.20
2018-09-08T11:03:23.711Z,62.70
2018-09-08T11:05:51.783Z,67.80
2018-09-08T11:08:19.872Z,71.40
2018-09-08T11:10:47.934Z,69.50
2018-09-08T11:13:16.214Z,59.00
2018-09-08T11:15:44.357Z,52.50
2018-09-08T11:18:12.560Z,50.90
2018-09-08T11:20:40.641Z,51.30
2018-09-08T11:23:08.776Z,57.30
2018-09-08T11:25:36.883Z,58.20
2018-09-08T11:28:05.095Z,54.00
2018-09-08T11:30:33.792Z,54.40
2018-09-08T11:33:01.875Z,57.40
2018-09-08T11:35:29.934Z,59.90
2018-09-08T11:37:58.052Z,61.70
2018-09-08T11:40:26.186Z,57.20
2018-09-08T11:42:54.258Z,57.50
2018-09-08T11:45:22.323Z,53.90
2018-09-08T11:47:50.411Z,58.20
2018-09-08T11:50:18.490Z,55.10
2018-09-08T11:52:46.607Z,56.30
2018-09-08T11:55:14.702Z,56.20
2018-09-08T11:57:42.796Z,53.30
2018-09-08T12:00:10.870Z,50.40
2018-09-08T12:02:39.099Z,48.30
2018-09-08T12:05:07.657Z,48.70
2018-09-08T12:07:36.958Z,54.00
2018-09-08T12:10:05.178Z,53.30
2018-09-08T12:12:33.267Z,56.70
2018-09-08T12:15:01.354Z,58.80
2018-09-08T12:17:29.435Z,62.70
2018-09-08T12:19:57.556Z,64.60
2018-09-08T12:22:25.655Z,63.40
2018-09-08T12:24:53.727Z,63.30
2018-09-08T12:27:21.799Z,59.10
2018-09-08T12:29:49.851Z,64.30
2018-09-08T12:32:17.946Z,67.40
2018-09-08T12:34:46.091Z,70.60
2018-09-08T12:37:14.224Z,70.70
2018-09-08T12:39:42.225Z,70.60
2018-09-08T12:42:10.362Z,60.20
2018-09-08T12:44:38.446Z,56.80
2018-09-08T12:47:06.570Z,55.30
2018-09-08T12:49:34.783Z,55.10
2018-09-08T12:52:02.874Z,52.20
2018-09-08T12:54:30.944Z,54.10
2018-09-08T12:56:59.006Z,57.30
2018-09-08T12:59:27.079Z,60.20
2018-09-08T13:01:55.123Z,63.40
2018-09-08T13:04:23.207Z,69.60
2018-09-08T13:06:51.324Z,71.40
2018-09-08T13:09:19.387Z,73.60
2018-09-08T13:11:47.488Z,69.10
2018-09-08T13:14:15.582Z,70.50
2018-09-08T13:16:44.621Z,70.40
2018-09-08T13:19:12.711Z,68.60
2018-09-08T13:21:40.771Z,65.10
2018-09-08T13:24:08.862Z,62.80
2018-09-08T13:26:36.943Z,61.90
2018-09-08T13:29:05.041Z,62.70
2018-09-08T13:31:33.116Z,62.20
2018-09-08T13:34:01.192Z,57.10
2018-09-08T13:36:29.295Z,61.10
2018-09-08T13:38:57.403Z,62.30
2018-09-08T13:41:25.490Z,64.10
2018-09-08T13:43:54.447Z,64.50
2018-09-08T13:46:22.596Z,67.50
2018-09-08T13:48:50.690Z,67.80
2018-09-08T13:51:18.879Z,69.90
2018-09-08T13:53:46.999Z,69.40
2018-09-08T13:56:15.061Z,68.20
2018-09-08T13:58:43.186Z,66.70
2018-09-08T14:01:11.254Z,69.50
2018-09-08T14:03:39.490Z,68.40
2018-09-08T14:06:07.638Z,69.80
2018-09-08T14:08:35.770Z,65.40
2018-09-08T14:11:03.849Z,59.40
2018-09-08T14:13:31.949Z,58.40
2018-09-08T14:16:00.183Z,53.90
2018-09-08T14:18:28.326Z,52.70
2018-09-08T14:20:56.493Z,48.80
2018-09-08T14:23:24.561Z,49.30
2018-09-08T14:25:52.758Z,53.40
2018-09-08T14:28:20.890Z,57.20
2018-09-08T14:30:48.960Z,61.30
2018-09-08T14:33:17.092Z,63.40
2018-09-08T14:35:45.174Z,68.90
2018-09-08T14:38:13.254Z,68.40
2018-09-08T14:40:42.650Z,66.70
2018-09-08T14:43:10.739Z,62.10
2018-09-08T14:45:38.866Z,66.80
2018-09-08T14:48:07.984Z,67.40
2018-09-08T14:50:37.120Z,71.00
2018-09-08T14:53:05.348Z,69.40
2018-09-08T14:55:33.402Z,69.70
2018-09-08T14:58:01.518Z,69.60
2018-09-08T15:00:29.650Z,68.30
2018-09-08T15:02:57.910Z,71.50
2018-09-08T15:05:26.031Z,71.90
2018-09-08T15:07:54.820Z,69.60
2018-09-08T15:10:22.902Z,70.00
2018-09-08T15:12:51.103Z,70.30
2018-09-08T15:15:19.546Z,72.50
2018-09-08T15:17:47.611Z,70.00
2018-09-08T15:20:15.807Z,76.70
2018-09-08T15:22:43.857Z,76.30
2018-09-08T15:25:12.142Z,75.30
2018-09-08T15:27:40.251Z,78.80
2018-09-08T15:30:09.939Z,80.10
2018-09-08T15:32:38.056Z,80.00
2018-09-08T15:35:06.474Z,79.30
2018-09-08T15:37:34.577Z,78.20
2018-09-08T15:40:02.662Z,74.50
2018-09-08T15:42:30.727Z,76.40
2018-09-08T15:44:58.825Z,76.00
2018-09-08T15:47:26.931Z,77.10
2018-09-08T15:49:55.018Z,75.20
2018-09-08T15:52:23.111Z,74.50
2018-09-08T15:54:51.184Z,78.40
2018-09-08T15:57:19.238Z,77.20
2018-09-08T15:59:47.442Z,77.00
2018-09-08T16:02:15.529Z,77.50
2018-09-08T16:04:43.630Z,78.10
2018-09-08T16:07:11.723Z,81.50
2018-09-08T16:09:39.802Z,84.80
2018-09-08T16:12:07.906Z,85.40
2018-09-08T16:14:36.146Z,87.60
2018-09-08T16:17:04.215Z,87.80
2018-09-08T16:19:32.279Z,85.90
2018-09-08T16:22:00.371Z,89.30
2018-09-08T16:24:28.438Z,88.00
2018-09-08T16:26:56.551Z,90.10
2018-09-08T16:29:24.696Z,91.50
2018-09-08T16:31:52.796Z,92.30
2018-09-08T16:34:21.880Z,92.40
2018-09-08T16:36:49.958Z,92.10
2018-09-08T16:39:18.141Z,91.60
2018-09-08T16:41:46.195Z,92.50
2018-09-08T16:44:14.312Z,93.10
2018-09-08T16:46:42.355Z,93.90
2018-09-08T16:49:10.410Z,95.80
2018-09-08T16:51:38.475Z,97.20
2018-09-08T16:54:06.686Z,97.20
2018-09-08T16:56:34.757Z,98.10
2018-09-08T16:59:02.832Z,98.60
2018-09-08T17:01:30.909Z,99.70
2018-09-08T17:03:58.992Z,99.90
2018-09-08T17:06:27.134Z,99.90
2018-09-08T17:08:55.190Z,99.90
2018-09-08T17:11:23.265Z,99.90
2018-09-08T17:13:51.315Z,99.90
2018-09-08T17:16:19.403Z,99.90
2018-09-08T17:18:47.453Z,99.90
2018-09-08T17:21:15.569Z,99.90
2018-09-08T17:23:43.630Z,99.90
2018-09-08T17:26:11.677Z,99.90
2018-09-08T17:28:40.762Z,99.90
2018-09-08T17:34:02.371Z,99.90
2018-09-08T17:36:30.430Z,99.90
2018-09-08T17:38:58.646Z,99.90
2018-09-08T17:41:26.778Z,99.90
2018-09-08T17:43:54.846Z,99.90
2018-09-08T17:46:22.889Z,99.90
2018-09-08T17:48:50.938Z,99.90
2018-09-08T17:51:19.076Z,99.90
2018-09-08T17:53:47.134Z,99.90
2018-09-08T17:56:15.207Z,99.90
2018-09-08T17:58:43.350Z,99.90
2018-09-08T18:01:11.366Z,99.90
2018-09-08T18:03:39.420Z,99.90
2018-09-08T18:06:07.512Z,99.90
2018-09-08T18:08:35.564Z,99.90
2018-09-08T18:11:03.654Z,99.90
2018-09-08T18:13:31.783Z,99.90
2018-09-08T18:15:59.878Z,99.90
2018-09-08T18:18:28.003Z,99.90
2018-09-08T18:20:56.100Z,99.90
2018-09-08T18:23:24.198Z,99.90
2018-09-08T18:25:52.214Z,99.90
2018-09-08T18:28:20.270Z,99.90
2018-09-08T18:30:48.346Z,99.90
2018-09-08T18:33:16.453Z,99.90
2018-09-08T18:35:44.535Z,99.90
2018-09-08T18:38:12.618Z,99.90
2018-09-08T18:40:40.752Z,99.90
2018-09-08T18:43:08.816Z,99.90
2018-09-08T18:45:36.870Z,99.90
2018-09-08T18:48:05.057Z,99.90
2018-09-08T18:50:33.563Z,99.90
2018-09-08T18:53:01.667Z,99.90
2018-09-08T18:55:29.801Z,99.90
2018-09-08T18:57:57.850Z,99.90
2018-09-08T19:00:25.919Z,99.90
2018-09-08T19:02:53.991Z,99.90
2018-09-08T19:05:22.038Z,99.90
2018-09-08T19:07:50.110Z,99.90
2018-09-08T19:10:18.175Z,99.90
2018-09-08T19:12:46.278Z,99.90
2018-09-08T19:15:15.259Z,99.90
2018-09-08T19:17:43.897Z,99.90
2018-09-08T19:20:17.526Z,99.90
2018-09-08T19:22:45.603Z,99.90
2018-09-08T19:25:13.797Z,99.90
2018-09-08T19:27:41.871Z,99.90
2018-09-08T19:30:09.909Z,99.90
2018-09-08T19:32:37.962Z,99.90
2018-09-08T19:35:11.500Z,99.90
2018-09-08T19:37:39.570Z,99.90
2018-09-08T19:40:13.154Z,99.90
2018-09-08T19:42:41.233Z,99.90
2018-09-08T19:45:09.359Z,99.90
2018-09-08T19:47:42.823Z,99.90
2018-09-08T19:50:10.854Z,99.90
2018-09-08T19:52:44.310Z,99.90
2018-09-08T19:55:12.356Z,99.90
2018-09-08T19:57:45.875Z,99.90
2018-09-08T20:00:13.924Z,99.90
2018-09-08T20:02:42.044Z,99.90
2018-09-08T20:05:10.119Z,99.90
2018-09-08T20:07:38.178Z,99.90
2018-09-08T20:10:06.246Z,99.90
2018-09-08T20:12:34.355Z,99.90
2018-09-08T20:15:03.266Z,99.90
2018-09-08T20:17:31.350Z,99.90
2018-09-08T20:19:59.442Z,99.90
2018-09-08T20:22:27.605Z,99.90
2018-09-08T20:24:55.691Z,99.90
2018-09-08T20:27:23.721Z,99.90
2018-09-08T20:29:51.754Z,99.90
2018-09-08T20:32:19.819Z,99.90
2018-09-08T20:34:47.887Z,99.90
2018-09-08T20:37:15.995Z,99.90
2018-09-08T20:39:44.178Z,99.90
2018-09-08T20:42:12.231Z,99.90
2018-09-08T20:44:40.401Z,99.90
2018-09-08T20:47:08.478Z,99.90
2018-09-08T20:49:36.547Z,99.90
2018-09-08T20:52:04.606Z,99.90
2018-09-08T20:54:32.686Z,99.90
2018-09-08T20:57:00.858Z,99.90
2018-09-08T20:59:28.967Z,99.90
2018-09-08T21:01:57.231Z,99.90
2018-09-08T21:04:25.288Z,99.90
2018-09-08T21:06:53.370Z,99.90
2018-09-08T21:09:21.459Z,99.90
2018-09-08T21:11:49.494Z,99.90
2018-09-08T21:14:17.576Z,99.90
2018-09-08T21:16:45.634Z,99.90
2018-09-08T21:19:14.262Z,99.90
2018-09-08T21:21:42.358Z,99.90
2018-09-08T21:24:10.407Z,99.90
2018-09-08T21:26:38.450Z,99.90
2018-09-08T21:29:06.555Z,99.90
2018-09-08T21:31:34.630Z,99.90
2018-09-08T21:34:02.702Z,99.90
2018-09-08T21:36:30.756Z,99.90
2018-09-08T21:38:58.853Z,99.90
2018-09-08T21:41:26.914Z,99.90
2018-09-08T21:43:56.049Z,99.90
2018-09-08T21:46:24.123Z,99.90
2018-09-08T21:48:52.217Z,99.90
2018-09-08T21:51:20.266Z,99.90
2018-09-08T21:53:48.343Z,99.90
2018-09-08T21:56:16.458Z,99.90
2018-09-08T21:58:44.511Z,99.90
2018-09-08T22:01:18.130Z,99.90
2018-09-08T22:03:46.182Z,99.90
2018-09-08T22:06:14.347Z,99.90
2018-09-08T22:08:42.418Z,99.90
2018-09-08T22:11:10.465Z,99.90
2018-09-08T22:13:38.542Z,99.90
2018-09-08T22:16:06.666Z,99.90
2018-09-08T22:18:34.730Z,99.90
2018-09-08T22:21:02.811Z,99.90
2018-09-08T22:23:30.867Z,99.90
2018-09-08T22:25:58.921Z,99.90
2018-09-08T22:28:27.115Z,99.90
2018-09-08T22:30:55.181Z,99.90
2018-09-08T22:33:23.298Z,99.90
2018-09-08T22:35:51.321Z,99.90
2018-09-08T22:38:19.361Z,99.90
2018-09-08T22:40:47.492Z,99.90
2018-09-08T22:43:15.564Z,99.90
2018-09-08T22:45:43.689Z,99.90
2018-09-08T22:48:11.786Z,99.90
2018-09-08T22:50:39.914Z,99.90
2018-09-08T22:53:08.957Z,99.90
2018-09-08T22:55:37.080Z,99.90
2018-09-08T22:58:05.217Z,99.90
2018-09-08T23:00:34.558Z,99.90
2018-09-08T23:03:02.706Z,99.90
2018-09-08T23:05:31.059Z,99.90
2018-09-08T23:07:59.250Z,99.90
2018-09-08T23:10:27.306Z,99.90
2018-09-08T23:12:56.460Z,99.90
2018-09-08T23:15:24.606Z,99.90
2018-09-08T23:17:52.681Z,99.90
2018-09-08T23:20:20.808Z,99.90
2018-09-08T23:22:48.862Z,99.90
2018-09-08T23:25:18.013Z,99.90
2018-09-08T23:27:46.125Z,99.90
2018-09-08T23:30:14.271Z,99.90
2018-09-08T23:32:42.387Z,99.90
2018-09-08T23:35:10.451Z,99.90
2018-09-08T23:37:38.565Z,99.90
2018-09-08T23:40:06.625Z,99.90
2018-09-08T23:42:34.762Z,99.90
2018-09-08T23:45:02.822Z,99.90
2018-09-08T23:47:30.866Z,99.90
2018-09-08T23:49:58.947Z,99.90
2018-09-08T23:52:27.546Z,99.90
2018-09-08T23:54:55.678Z,99.90
2018-09-08T23:57:23.730Z,99.90
2018-09-08T23:59:51.790Z,99.90
